createdAt,value
2023-04-10T00:00:02.045Z,76.00
2023-04-10T00:01:02.010Z,76.00
2023-04-10T00:02:03.064Z,76.00
2023-04-10T00:03:03.272Z,77.00
2023-04-10T00:04:03.270Z,77.00
2023-04-10T00:05:02.925Z,77.00
2023-04-10T00:06:02.863Z,76.00
2023-04-10T00:07:01.837Z,76.00
2023-04-10T00:08:02.395Z,76.00
2023-04-10T00:09:02.056Z,76.00
2023-04-10T00:10:01.819Z,75.00
2023-04-10T00:11:02.267Z,75.00
2023-04-10T00:12:02.637Z,75.00
2023-04-10T00:13:02.248Z,75.00
2023-04-10T00:14:02.131Z,76.00
2023-04-10T00:15:02.161Z,76.00
2023-04-10T00:16:02.725Z,76.00
2023-04-10T00:17:03.038Z,76.00
2023-04-10T00:18:02.875Z,76.00
2023-04-10T00:19:02.445Z,75.00
2023-04-10T00:20:02.878Z,75.00
2023-04-10T00:21:02.937Z,75.00
2023-04-10T00:22:02.490Z,75.00
2023-04-10T00:23:02.297Z,75.00
2023-04-10T00:24:02.049Z,75.00
2023-04-10T00:25:01.776Z,75.00
2023-04-10T00:26:02.175Z,74.00
2023-04-10T00:27:02.054Z,74.00
2023-04-10T00:28:02.552Z,74.00
2023-04-10T00:29:02.582Z,73.00
2023-04-10T00:30:02.112Z,73.00
2023-04-10T00:31:02.584Z,74.00
2023-04-10T00:32:02.792Z,74.00
2023-04-10T00:33:02.271Z,75.00
2023-04-10T00:34:02.209Z,75.00
2023-04-10T00:35:02.178Z,76.00
2023-04-10T00:36:02.740Z,76.00
2023-04-10T00:37:02.909Z,75.00
2023-04-10T00:38:02.572Z,75.00
2023-04-10T00:39:02.340Z,75.00
2023-04-10T00:40:02.714Z,75.00
2023-04-10T00:41:02.464Z,75.00
2023-04-10T00:42:02.040Z,75.00
2023-04-10T00:43:02.101Z,76.00
2023-04-10T00:44:02.582Z,76.00
2023-04-10T00:45:02.451Z,76.00
2023-04-10T00:46:02.249Z,75.00
2023-04-10T00:47:02.192Z,75.00
2023-04-10T00:48:02.368Z,76.00
2023-04-10T00:49:02.468Z,76.00
2023-04-10T00:50:02.618Z,76.00
2023-04-10T00:51:02.211Z,77.00
2023-04-10T00:52:02.622Z,76.00
2023-04-10T00:53:02.379Z,76.00
2023-04-10T00:54:02.478Z,76.00
2023-04-10T00:55:02.360Z,74.00
2023-04-10T00:56:02.248Z,75.00
2023-04-10T00:57:02.166Z,75.00
2023-04-10T00:58:02.102Z,76.00
2023-04-10T00:59:01.827Z,76.00
2023-04-10T01:00:01.977Z,76.00
2023-04-10T01:01:01.907Z,75.00
2023-04-10T01:02:02.174Z,76.00
2023-04-10T01:03:02.350Z,76.00
2023-04-10T01:04:02.151Z,76.00
2023-04-10T01:05:01.983Z,75.00
2023-04-10T01:06:01.883Z,75.00
2023-04-10T01:07:02.811Z,75.00
2023-04-10T01:08:02.554Z,75.00
2023-04-10T01:09:02.343Z,76.00
2023-04-10T01:10:02.915Z,77.00
2023-04-10T01:11:02.503Z,77.00
2023-04-10T01:12:02.088Z,77.00
2023-04-10T01:13:01.972Z,77.00
2023-04-10T01:14:02.445Z,78.00
2023-04-10T01:15:02.560Z,78.00
2023-04-10T01:16:02.196Z,78.00
2023-04-10T01:17:02.890Z,78.00
2023-04-10T01:18:02.588Z,78.00
2023-04-10T01:19:03.090Z,78.00
2023-04-10T01:20:03.142Z,78.00
2023-04-10T01:21:02.857Z,78.00
2023-04-10T01:22:02.496Z,78.00
2023-04-10T01:23:02.301Z,78.00
2023-04-10T01:24:02.790Z,78.00
2023-04-10T01:25:02.432Z,78.00
2023-04-10T01:26:02.231Z,78.00
2023-04-10T01:27:02.787Z,78.00
2023-04-10T01:28:02.631Z,78.00
2023-04-10T01:29:02.909Z,79.00
2023-04-10T01:30:03.061Z,79.00
2023-04-10T01:31:02.905Z,78.00
2023-04-10T01:32:01.981Z,78.00
2023-04-10T01:33:02.147Z,77.00
2023-04-10T01:34:02.342Z,77.00
2023-04-10T01:35:01.933Z,77.00
2023-04-10T01:36:01.760Z,78.00
2023-04-10T01:37:02.174Z,78.00
2023-04-10T01:38:02.073Z,77.00
2023-04-10T01:39:02.088Z,77.00
2023-04-10T01:40:02.128Z,77.00
2023-04-10T01:41:01.950Z,77.00
2023-04-10T01:42:02.287Z,77.00
2023-04-10T01:43:02.752Z,77.00
2023-04-10T01:44:02.320Z,77.00
2023-04-10T01:45:02.108Z,77.00
2023-04-10T01:46:02.447Z,78.00
2023-04-10T01:47:01.767Z,78.00
2023-04-10T01:48:01.970Z,77.00
2023-04-10T01:49:01.970Z,77.00
2023-04-10T01:50:02.097Z,77.00
2023-04-10T01:51:02.285Z,77.00
2023-04-10T01:52:02.560Z,78.00
2023-04-10T01:53:02.327Z,78.00
2023-04-10T01:54:03.482Z,77.00
2023-04-10T01:55:02.499Z,78.00
2023-04-10T01:56:02.293Z,78.00
2023-04-10T01:57:03.072Z,79.00
2023-04-10T01:58:03.029Z,79.00
2023-04-10T01:59:03.094Z,80.00
2023-04-10T02:00:02.549Z,80.00
2023-04-10T02:01:02.536Z,80.00
2023-04-10T02:02:03.221Z,80.00
2023-04-10T02:03:03.292Z,80.00
2023-04-10T02:04:03.043Z,80.00
2023-04-10T02:05:02.818Z,81.00
2023-04-10T02:06:02.774Z,81.00
2023-04-10T02:07:03.558Z,81.00
2023-04-10T02:08:03.243Z,81.00
2023-04-10T02:09:03.381Z,81.00
2023-04-10T02:10:03.336Z,81.00
2023-04-10T02:11:03.061Z,81.00
2023-04-10T02:12:03.544Z,81.00
2023-04-10T02:13:03.241Z,81.00
2023-04-10T02:14:03.793Z,81.00
2023-04-10T02:15:03.431Z,81.00
2023-04-10T02:16:04.443Z,80.00
2023-04-10T02:17:02.966Z,80.00
2023-04-10T02:18:02.803Z,80.00
2023-04-10T02:19:02.678Z,80.00
2023-04-10T02:20:02.750Z,81.00
2023-04-10T02:21:02.946Z,80.00
2023-04-10T02:22:03.188Z,80.00
2023-04-10T02:23:03.803Z,80.00
2023-04-10T02:24:03.391Z,80.00
2023-04-10T02:25:03.604Z,79.00
2023-04-10T02:26:03.451Z,79.00
2023-04-10T02:27:02.731Z,78.00
2023-04-10T02:28:02.426Z,79.00
2023-04-10T02:29:02.888Z,79.00
2023-04-10T02:30:02.546Z,79.00
2023-04-10T02:31:02.637Z,78.00
2023-04-10T02:32:02.945Z,78.00
2023-04-10T02:33:02.941Z,78.00
2023-04-10T02:34:02.803Z,78.00
2023-04-10T02:35:03.304Z,79.00
2023-04-10T02:36:02.945Z,79.00
2023-04-10T02:37:03.176Z,79.00
2023-04-10T02:38:03.061Z,79.00
2023-04-10T02:39:03.505Z,79.00
2023-04-10T02:40:03.594Z,79.00
2023-04-10T02:41:03.439Z,79.00
2023-04-10T02:42:02.947Z,79.00
2023-04-10T02:43:02.601Z,79.00
2023-04-10T02:44:02.470Z,79.00
2023-04-10T02:45:03.030Z,78.00
2023-04-10T02:46:02.625Z,78.00
2023-04-10T02:47:03.200Z,78.00
2023-04-10T02:48:02.849Z,78.00
2023-04-10T02:49:02.934Z,79.00
2023-04-10T02:50:02.839Z,78.00
2023-04-10T02:51:02.698Z,78.00
2023-04-10T02:52:02.746Z,78.00
2023-04-10T02:53:03.107Z,77.00
2023-04-10T02:54:03.042Z,77.00
2023-04-10T02:55:02.994Z,77.00
2023-04-10T02:56:02.903Z,78.00
2023-04-10T02:57:02.874Z,78.00
2023-04-10T02:58:02.525Z,79.00
2023-04-10T02:59:02.658Z,79.00
2023-04-10T03:00:02.775Z,79.00
2023-04-10T03:01:02.599Z,79.00
2023-04-10T03:02:03.199Z,78.00
2023-04-10T03:03:03.036Z,78.00
2023-04-10T03:04:02.773Z,78.00
2023-04-10T03:05:02.620Z,78.00
2023-04-10T03:06:03.049Z,78.00
2023-04-10T03:07:02.437Z,78.00
2023-04-10T03:08:02.207Z,77.00
2023-04-10T03:09:02.010Z,77.00
2023-04-10T03:10:02.379Z,77.00
2023-04-10T03:11:02.276Z,77.00
2023-04-10T03:12:02.727Z,77.00
2023-04-10T03:13:02.191Z,77.00
2023-04-10T03:14:02.636Z,77.00
2023-04-10T03:15:02.620Z,77.00
2023-04-10T03:16:02.510Z,77.00
2023-04-10T03:17:02.981Z,77.00
2023-04-10T03:18:02.987Z,78.00
2023-04-10T03:19:02.476Z,79.00
2023-04-10T03:20:02.505Z,79.00
2023-04-10T03:21:02.995Z,79.00
2023-04-10T03:22:01.939Z,79.00
2023-04-10T03:23:01.790Z,80.00
2023-04-10T03:24:02.312Z,79.00
2023-04-10T03:25:01.639Z,79.00
2023-04-10T03:26:02.229Z,79.00
2023-04-10T03:27:02.377Z,79.00
2023-04-10T03:28:02.204Z,80.00
2023-04-10T03:29:02.062Z,80.00
2023-04-10T03:30:02.049Z,80.00
2023-04-10T03:31:01.944Z,80.00
2023-04-10T03:32:02.485Z,81.00
2023-04-10T03:33:02.268Z,81.00
2023-04-10T03:34:02.252Z,81.00
2023-04-10T03:35:02.275Z,82.00
2023-04-10T03:36:02.216Z,82.00
2023-04-10T03:37:02.645Z,82.00
2023-04-10T03:38:02.309Z,82.00
2023-04-10T03:39:02.654Z,82.00
2023-04-10T03:40:02.216Z,83.00
2023-04-10T03:41:02.576Z,83.00
2023-04-10T03:42:01.471Z,83.00
2023-04-10T03:43:01.610Z,82.00
2023-04-10T03:44:01.553Z,82.00
2023-04-10T03:45:01.431Z,83.00
2023-04-10T03:46:01.985Z,82.00
2023-04-10T03:47:01.646Z,82.00
2023-04-10T03:48:02.265Z,82.00
2023-04-10T03:49:01.914Z,81.00
2023-04-10T03:50:01.754Z,81.00
2023-04-10T03:51:02.030Z,81.00
2023-04-10T03:52:01.841Z,82.00
2023-04-10T03:53:01.760Z,82.00
2023-04-10T03:54:02.314Z,82.00
2023-04-10T03:55:01.937Z,82.00
2023-04-10T03:56:01.687Z,82.00
2023-04-10T03:57:02.626Z,82.00
2023-04-10T03:58:02.473Z,81.00
2023-04-10T03:59:02.349Z,81.00
2023-04-10T04:00:02.226Z,81.00
2023-04-10T04:01:02.198Z,81.00
2023-04-10T04:02:02.740Z,82.00
2023-04-10T04:03:03.573Z,82.00
2023-04-10T04:04:02.738Z,82.00
2023-04-10T04:05:02.748Z,82.00
2023-04-10T04:06:02.672Z,82.00
2023-04-10T04:07:02.359Z,82.00
2023-04-10T04:08:02.687Z,82.00
2023-04-10T04:09:02.467Z,82.00
2023-04-10T04:10:02.394Z,82.00
2023-04-10T04:11:02.308Z,82.00
2023-04-10T04:12:02.865Z,82.00
2023-04-10T04:13:02.796Z,83.00
2023-04-10T04:14:02.698Z,83.00
2023-04-10T04:15:03.244Z,82.00
2023-04-10T04:16:03.176Z,82.00
2023-04-10T04:17:02.114Z,81.00
2023-04-10T04:18:01.914Z,81.00
2023-04-10T04:19:02.504Z,81.00
2023-04-10T04:20:02.150Z,82.00
2023-04-10T04:21:01.970Z,82.00
2023-04-10T04:22:02.461Z,82.00
2023-04-10T04:23:02.939Z,82.00
2023-04-10T04:24:02.503Z,82.00
2023-04-10T04:25:02.303Z,82.00
2023-04-10T04:26:02.862Z,82.00
2023-04-10T04:27:02.542Z,81.00
2023-04-10T04:28:02.683Z,81.00
2023-04-10T04:29:02.834Z,81.00
2023-04-10T04:30:02.686Z,81.00
2023-04-10T04:31:02.649Z,81.00
2023-04-10T04:32:02.200Z,80.00
2023-04-10T04:33:02.041Z,80.00
2023-04-10T04:34:02.618Z,79.00
2023-04-10T04:35:02.126Z,79.00
2023-04-10T04:36:02.186Z,79.00
2023-04-10T04:37:02.919Z,79.00
2023-04-10T04:38:02.699Z,80.00
2023-04-10T04:39:02.764Z,80.00
2023-04-10T04:40:02.863Z,81.00
2023-04-10T04:41:02.593Z,82.00
2023-04-10T04:42:02.144Z,82.00
2023-04-10T04:43:02.036Z,82.00
2023-04-10T04:44:02.016Z,81.00
2023-04-10T04:45:01.949Z,80.00
2023-04-10T04:46:02.377Z,80.00
2023-04-10T04:47:02.786Z,80.00
2023-04-10T04:48:02.493Z,80.00
2023-04-10T04:49:03.021Z,80.00
2023-04-10T04:50:02.667Z,80.00
2023-04-10T04:51:02.595Z,80.00
2023-04-10T04:52:02.120Z,81.00
2023-04-10T04:53:02.125Z,81.00
2023-04-10T04:54:01.766Z,81.00
2023-04-10T04:55:01.811Z,82.00
2023-04-10T04:56:02.440Z,82.00
2023-04-10T04:57:02.837Z,82.00
2023-04-10T04:58:02.752Z,82.00
2023-04-10T04:59:02.601Z,83.00
2023-04-10T05:00:02.531Z,83.00
2023-04-10T05:01:02.779Z,83.00
2023-04-10T05:02:02.796Z,83.00
2023-04-10T05:03:02.092Z,83.00
2023-04-10T05:04:02.558Z,83.00
2023-04-10T05:05:02.490Z,83.00
2023-04-10T05:06:01.907Z,83.00
2023-04-10T05:07:02.940Z,83.00
2023-04-10T05:08:02.662Z,83.00
2023-04-10T05:09:02.596Z,83.00
2023-04-10T05:10:02.597Z,83.00
2023-04-10T05:11:02.424Z,82.00
2023-04-10T05:12:03.114Z,81.00
2023-04-10T05:13:03.048Z,81.00
2023-04-10T05:14:02.936Z,80.00
2023-04-10T05:15:02.950Z,80.00
2023-04-10T05:16:03.218Z,80.00
2023-04-10T05:17:03.646Z,80.00
2023-04-10T05:18:02.824Z,80.00
2023-04-10T05:19:02.699Z,80.00
2023-04-10T05:20:02.731Z,80.00
2023-04-10T05:21:02.759Z,80.00
2023-04-10T05:22:03.154Z,80.00
2023-04-10T05:23:02.741Z,79.00
2023-04-10T05:24:03.216Z,80.00
2023-04-10T05:25:03.250Z,81.00
2023-04-10T05:26:02.936Z,81.00
2023-04-10T05:27:02.631Z,81.00
2023-04-10T05:28:02.651Z,81.00
2023-04-10T05:29:02.374Z,82.00
2023-04-10T05:30:02.374Z,82.00
2023-04-10T05:31:02.433Z,83.00
2023-04-10T05:32:03.189Z,82.00
2023-04-10T05:33:02.870Z,82.00
2023-04-10T05:34:02.904Z,82.00
2023-04-10T05:35:02.867Z,82.00
2023-04-10T05:36:02.876Z,82.00
2023-04-10T05:37:02.497Z,82.00
2023-04-10T05:38:02.276Z,81.00
2023-04-10T05:39:02.176Z,81.00
2023-04-10T05:40:02.092Z,81.00
2023-04-10T05:41:01.972Z,80.00
2023-04-10T05:42:02.599Z,80.00
2023-04-10T05:43:02.375Z,80.00
2023-04-10T05:44:02.352Z,80.00
2023-04-10T05:45:02.342Z,81.00
2023-04-10T05:46:02.336Z,81.00
2023-04-10T05:47:02.909Z,80.00
2023-04-10T05:48:02.688Z,80.00
2023-04-10T05:49:02.753Z,80.00
2023-04-10T05:50:02.750Z,80.00
2023-04-10T05:51:02.650Z,80.00
2023-04-10T05:52:01.613Z,80.00
2023-04-10T05:53:02.137Z,80.00
2023-04-10T05:54:01.971Z,80.00
2023-04-10T05:55:01.888Z,80.00
2023-04-10T05:56:01.926Z,80.00
2023-04-10T05:57:02.039Z,80.00
2023-04-10T05:58:01.969Z,80.00
2023-04-10T05:59:02.533Z,80.00
2023-04-10T06:00:02.237Z,81.00
2023-04-10T06:01:02.257Z,81.00
2023-04-10T06:02:02.354Z,81.00
2023-04-10T06:03:02.491Z,81.00
2023-04-10T06:04:02.580Z,81.00
2023-04-10T06:05:02.733Z,81.00
2023-04-10T06:06:02.625Z,82.00
2023-04-10T06:07:02.641Z,82.00
2023-04-10T06:08:03.115Z,82.00
2023-04-10T06:09:03.120Z,83.00
2023-04-10T06:10:03.132Z,83.00
2023-04-10T06:11:03.092Z,83.00
2023-04-10T06:12:02.100Z,83.00
2023-04-10T06:13:02.555Z,83.00
2023-04-10T06:14:02.636Z,83.00
2023-04-10T06:15:02.654Z,82.00
2023-04-10T06:16:02.384Z,82.00
2023-04-10T06:17:02.396Z,81.00
2023-04-10T06:18:02.459Z,81.00
2023-04-10T06:19:02.737Z,81.00
2023-04-10T06:20:02.397Z,81.00
2023-04-10T06:21:02.418Z,81.00
2023-04-10T06:22:02.064Z,81.00
2023-04-10T06:23:01.978Z,81.00
2023-04-10T06:24:01.973Z,81.00
2023-04-10T06:25:02.551Z,80.00
2023-04-10T06:26:02.486Z,80.00
2023-04-10T06:27:02.262Z,80.00
2023-04-10T06:28:02.198Z,80.00
2023-04-10T06:29:02.532Z,80.00
2023-04-10T06:30:02.611Z,80.00
2023-04-10T06:31:02.613Z,79.00
2023-04-10T06:32:02.570Z,79.00
2023-04-10T06:33:02.954Z,79.00
2023-04-10T06:34:02.774Z,80.00
2023-04-10T06:35:02.541Z,79.00
2023-04-10T06:36:02.474Z,79.00
2023-04-10T06:37:02.818Z,78.00
2023-04-10T06:38:02.801Z,79.00
2023-04-10T06:39:03.021Z,79.00
2023-04-10T06:40:02.975Z,78.00
2023-04-10T06:41:02.780Z,78.00
2023-04-10T06:42:02.169Z,77.00
2023-04-10T06:43:02.170Z,77.00
2023-04-10T06:44:03.719Z,77.00
2023-04-10T06:45:02.366Z,77.00
2023-04-10T06:46:02.339Z,77.00
2023-04-10T06:47:02.387Z,77.00
2023-04-10T06:48:02.574Z,77.00
2023-04-10T06:49:02.737Z,78.00
2023-04-10T06:50:02.458Z,78.00
2023-04-10T06:51:02.503Z,79.00
2023-04-10T06:52:02.541Z,79.00
2023-04-10T06:53:02.403Z,79.00
2023-04-10T06:54:02.433Z,78.00
2023-04-10T06:55:02.507Z,79.00
2023-04-10T06:56:03.830Z,77.00
2023-04-10T06:57:02.906Z,75.00
2023-04-10T06:58:03.050Z,72.00
2023-04-10T06:59:03.137Z,71.00
2023-04-10T07:00:03.328Z,70.00
2023-04-10T07:01:02.916Z,69.00
2023-04-10T07:02:03.163Z,69.00
2023-04-10T07:03:03.108Z,68.00
2023-04-10T07:04:03.265Z,67.00
2023-04-10T07:05:03.066Z,67.00
2023-04-10T07:06:03.507Z,66.00
2023-04-10T07:07:02.395Z,65.00
2023-04-10T07:08:02.302Z,66.00
2023-04-10T07:09:02.241Z,65.00
2023-04-10T07:10:02.336Z,66.00
2023-04-10T07:11:02.247Z,65.00
2023-04-10T07:12:02.772Z,64.00
2023-04-10T07:13:03.022Z,63.00
2023-04-10T07:14:02.909Z,65.00
2023-04-10T07:15:02.856Z,63.00
2023-04-10T07:16:02.924Z,64.00
2023-04-10T07:17:03.055Z,64.00
2023-04-10T07:18:03.012Z,65.00
2023-04-10T07:19:03.453Z,65.00
2023-04-10T07:20:02.898Z,64.00
2023-04-10T07:21:02.971Z,65.00
2023-04-10T07:22:03.127Z,65.00
2023-04-10T07:23:03.611Z,64.00
2023-04-10T07:24:03.535Z,64.00
2023-04-10T07:25:02.921Z,60.00
2023-04-10T07:26:02.980Z,59.00
2023-04-10T07:27:02.942Z,59.00
2023-04-10T07:28:02.754Z,61.00
2023-04-10T07:29:02.734Z,60.00
2023-04-10T07:30:02.763Z,59.00
2023-04-10T07:31:02.485Z,60.00
2023-04-10T07:32:03.250Z,59.00
2023-04-10T07:33:03.220Z,58.00
2023-04-10T07:34:03.027Z,56.00
2023-04-10T07:35:02.970Z,56.00
2023-04-10T07:36:03.378Z,54.00
2023-04-10T07:37:02.573Z,55.00
2023-04-10T07:38:02.541Z,54.00
2023-04-10T07:39:02.479Z,53.00
2023-04-10T07:40:02.602Z,55.00
2023-04-10T07:41:02.639Z,54.00
2023-04-10T07:42:02.703Z,55.00
2023-04-10T07:43:02.812Z,54.00
2023-04-10T07:44:02.551Z,53.00
2023-04-10T07:45:02.595Z,54.00
2023-04-10T07:46:02.840Z,54.00
2023-04-10T07:47:02.926Z,52.00
2023-04-10T07:48:02.920Z,52.00
2023-04-10T07:49:02.902Z,52.00
2023-04-10T07:50:02.937Z,51.00
2023-04-10T07:51:03.155Z,51.00
2023-04-10T07:52:03.008Z,52.00
2023-04-10T07:53:03.179Z,53.00
2023-04-10T07:54:02.814Z,51.00
2023-04-10T07:55:02.833Z,52.00
2023-04-10T07:56:02.744Z,52.00
2023-04-10T07:57:02.602Z,51.00
2023-04-10T07:58:02.583Z,50.00
2023-04-10T07:59:02.711Z,49.00
2023-04-10T08:00:02.683Z,49.00
2023-04-10T08:01:02.343Z,49.00
2023-04-10T08:02:03.176Z,49.00
2023-04-10T08:03:03.330Z,49.00
2023-04-10T08:04:05.588Z,49.00
2023-04-10T08:05:03.014Z,48.00
2023-04-10T08:06:02.972Z,48.00
2023-04-10T08:07:03.510Z,48.00
2023-04-10T08:08:03.601Z,47.00
2023-04-10T08:09:03.660Z,47.00
2023-04-10T08:10:03.718Z,47.00
2023-04-10T08:11:03.716Z,47.00
2023-04-10T08:12:02.834Z,45.00
2023-04-10T08:13:02.721Z,45.00
2023-04-10T08:14:02.617Z,46.00
2023-04-10T08:15:02.644Z,45.00
2023-04-10T08:16:02.713Z,45.00
2023-04-10T08:17:03.424Z,46.00
2023-04-10T08:18:03.222Z,46.00
2023-04-10T08:19:03.302Z,45.00
2023-04-10T08:20:03.431Z,45.00
2023-04-10T08:21:03.406Z,44.00
2023-04-10T08:22:03.343Z,45.00
2023-04-10T08:23:19.132Z,45.00
2023-04-10T08:24:03.403Z,45.00
2023-04-10T08:25:03.379Z,46.00
2023-04-10T08:26:03.211Z,46.00
2023-04-10T08:27:02.846Z,44.00
2023-04-10T08:28:02.682Z,44.00
2023-04-10T08:29:02.803Z,45.00
2023-04-10T08:30:02.583Z,46.00
2023-04-10T08:31:02.718Z,43.00
2023-04-10T08:32:03.456Z,43.00
2023-04-10T08:33:03.363Z,43.00
2023-04-10T08:34:03.447Z,44.00
2023-04-10T08:35:03.591Z,44.00
2023-04-10T08:36:03.259Z,42.00
2023-04-10T08:37:02.461Z,43.00
2023-04-10T08:38:13.446Z,43.00
2023-04-10T08:39:02.596Z,42.00
2023-04-10T08:40:02.901Z,43.00
2023-04-10T08:41:02.976Z,42.00
2023-04-10T08:42:03.670Z,41.00
2023-04-10T08:43:04.010Z,42.00
2023-04-10T08:44:03.756Z,42.00
2023-04-10T08:45:03.366Z,42.00
2023-04-10T08:46:03.252Z,42.00
2023-04-10T08:47:03.117Z,42.00
2023-04-10T08:48:03.091Z,42.00
2023-04-10T08:49:02.995Z,42.00
2023-04-10T08:50:02.708Z,42.00
2023-04-10T08:51:02.817Z,42.00
2023-04-10T08:52:03.621Z,42.00
2023-04-10T08:53:03.059Z,40.00
2023-04-10T08:54:03.257Z,41.00
2023-04-10T08:55:03.329Z,41.00
2023-04-10T08:56:03.289Z,40.00
2023-04-10T08:57:03.649Z,41.00
2023-04-10T08:58:03.115Z,41.00
2023-04-10T08:59:03.136Z,41.00
2023-04-10T09:00:12.770Z,39.00
2023-04-10T09:01:03.182Z,40.00
2023-04-10T09:02:03.001Z,39.00
2023-04-10T09:03:02.463Z,39.00
2023-04-10T09:04:02.563Z,39.00
2023-04-10T09:05:02.893Z,39.00
2023-04-10T09:06:02.590Z,40.00
2023-04-10T09:07:03.375Z,39.00
2023-04-10T09:08:03.157Z,39.00
2023-04-10T09:09:03.286Z,40.00
2023-04-10T09:10:02.973Z,40.00
2023-04-10T09:11:02.677Z,40.00
2023-04-10T09:12:02.385Z,40.00
2023-04-10T09:13:02.444Z,39.00
2023-04-10T09:14:02.558Z,39.00
2023-04-10T09:15:02.801Z,39.00
2023-04-10T09:16:02.847Z,39.00
2023-04-10T09:17:02.715Z,40.00
2023-04-10T09:18:02.698Z,40.00
2023-04-10T09:19:04.986Z,39.00
2023-04-10T09:20:02.914Z,39.00
2023-04-10T09:21:02.796Z,38.00
2023-04-10T09:22:02.589Z,39.00
2023-04-10T09:23:02.660Z,39.00
2023-04-10T09:24:02.695Z,39.00
2023-04-10T09:25:03.105Z,40.00
2023-04-10T09:26:03.080Z,39.00
2023-04-10T09:27:01.957Z,40.00
2023-04-10T09:28:02.178Z,39.00
2023-04-10T09:29:02.175Z,39.00
2023-04-10T09:30:02.164Z,40.00
2023-04-10T09:31:02.467Z,39.00
2023-04-10T09:32:02.407Z,39.00
2023-04-10T09:33:03.756Z,39.00
2023-04-10T09:34:02.345Z,39.00
2023-04-10T09:35:02.495Z,39.00
2023-04-10T09:36:02.367Z,39.00
2023-04-10T09:37:02.070Z,40.00
2023-04-10T09:38:02.033Z,39.00
2023-04-10T09:39:02.116Z,39.00
2023-04-10T09:40:02.046Z,38.00
2023-04-10T09:41:02.086Z,38.00
2023-04-10T09:42:02.217Z,38.00
2023-04-10T09:43:02.217Z,38.00
2023-04-10T09:44:02.291Z,38.00
2023-04-10T09:45:02.345Z,38.00
2023-04-10T09:46:02.323Z,38.00
2023-04-10T09:47:02.606Z,39.00
2023-04-10T09:48:02.566Z,38.00
2023-04-10T09:49:02.566Z,38.00
2023-04-10T09:50:02.613Z,37.00
2023-04-10T09:51:02.590Z,37.00
2023-04-10T09:52:02.851Z,38.00
2023-04-10T09:53:02.825Z,37.00
2023-04-10T09:54:02.389Z,38.00
2023-04-10T09:55:02.511Z,38.00
2023-04-10T09:56:02.478Z,38.00
2023-04-10T09:57:02.282Z,37.00
2023-04-10T09:58:02.439Z,37.00
2023-04-10T09:59:02.446Z,37.00
2023-04-10T10:00:02.591Z,37.00
2023-04-10T10:01:02.529Z,37.00
2023-04-10T10:02:02.764Z,38.00
2023-04-10T10:03:02.849Z,37.00
2023-04-10T10:04:02.874Z,38.00
2023-04-10T10:05:02.891Z,38.00
2023-04-10T10:06:02.951Z,38.00
2023-04-10T10:07:02.804Z,37.00
2023-04-10T10:08:02.968Z,38.00
2023-04-10T10:09:03.035Z,37.00
2023-04-10T10:10:03.088Z,38.00
2023-04-10T10:11:03.030Z,37.00
2023-04-10T10:12:03.015Z,38.00
2023-04-10T10:13:02.953Z,36.00
2023-04-10T10:14:03.000Z,37.00
2023-04-10T10:15:03.100Z,38.00
2023-04-10T10:16:03.210Z,38.00
2023-04-10T10:17:03.214Z,37.00
2023-04-10T10:18:03.346Z,37.00
2023-04-10T10:19:03.434Z,36.00
2023-04-10T10:20:03.253Z,36.00
2023-04-10T10:21:03.338Z,35.00
2023-04-10T10:22:03.364Z,35.00
2023-04-10T10:23:03.430Z,35.00
2023-04-10T10:24:03.537Z,35.00
2023-04-10T10:25:03.476Z,34.00
2023-04-10T10:26:03.955Z,34.00
2023-04-10T10:27:03.479Z,34.00
2023-04-10T10:28:03.491Z,34.00
2023-04-10T10:29:03.412Z,34.00
2023-04-10T10:30:11.918Z,34.00
2023-04-10T10:31:03.471Z,33.00
2023-04-10T10:32:03.517Z,34.00
2023-04-10T10:33:03.992Z,35.00
2023-04-10T10:34:03.937Z,35.00
2023-04-10T10:35:03.742Z,34.00
2023-04-10T10:36:03.677Z,33.00
2023-04-10T10:37:02.887Z,33.00
2023-04-10T10:38:02.982Z,33.00
2023-04-10T10:39:02.695Z,33.00
2023-04-10T10:40:02.832Z,32.00
2023-04-10T10:41:02.717Z,32.00
2023-04-10T10:42:03.313Z,33.00
2023-04-10T10:43:03.390Z,33.00
2023-04-10T10:44:03.336Z,34.00
2023-04-10T10:45:03.424Z,33.00
2023-04-10T10:46:03.597Z,33.00
2023-04-10T10:47:03.516Z,33.00
2023-04-10T10:48:03.796Z,33.00
2023-04-10T10:49:03.857Z,34.00
2023-04-10T10:50:03.691Z,34.00
2023-04-10T10:51:03.714Z,34.00
2023-04-10T10:52:02.844Z,34.00
2023-04-10T10:53:02.917Z,33.00
2023-04-10T10:54:02.983Z,33.00
2023-04-10T10:55:02.935Z,32.00
2023-04-10T10:56:02.951Z,32.00
2023-04-10T10:57:02.922Z,32.00
2023-04-10T10:58:03.010Z,33.00
2023-04-10T10:59:03.127Z,32.00
2023-04-10T11:00:03.176Z,32.00
2023-04-10T11:01:03.122Z,33.00
2023-04-10T11:02:03.265Z,32.00
2023-04-10T11:03:03.516Z,32.00
2023-04-10T11:04:03.418Z,31.00
2023-04-10T11:05:02.941Z,31.00
2023-04-10T11:06:03.065Z,31.00
2023-04-10T11:07:03.218Z,32.00
2023-04-10T11:08:03.262Z,31.00
2023-04-10T11:09:03.446Z,32.00
2023-04-10T11:10:02.938Z,30.00
2023-04-10T11:11:03.097Z,30.00
2023-04-10T11:12:02.941Z,31.00
2023-04-10T11:13:02.867Z,31.00
2023-04-10T11:14:02.916Z,31.00
2023-04-10T11:15:03.181Z,31.00
2023-04-10T11:16:03.118Z,31.00
2023-04-10T11:17:03.590Z,32.00
2023-04-10T11:18:02.856Z,32.00
2023-04-10T11:19:14.140Z,31.00
2023-04-10T11:20:03.095Z,31.00
2023-04-10T11:21:03.066Z,31.00
2023-04-10T11:22:03.192Z,30.00
2023-04-10T11:23:03.263Z,31.00
2023-04-10T11:24:03.401Z,32.00
2023-04-10T11:25:02.971Z,32.00
2023-04-10T11:26:03.158Z,30.00
2023-04-10T11:27:02.488Z,30.00
2023-04-10T11:28:02.252Z,30.00
2023-04-10T11:29:02.241Z,30.00
2023-04-10T11:30:02.220Z,31.00
2023-04-10T11:31:02.452Z,30.00
2023-04-10T11:32:02.595Z,30.00
2023-04-10T11:33:02.773Z,31.00
2023-04-10T11:34:02.164Z,32.00
2023-04-10T11:35:04.850Z,31.00
2023-04-10T11:36:02.673Z,30.00
2023-04-10T11:37:03.252Z,32.00
2023-04-10T11:38:03.291Z,31.00
2023-04-10T11:39:03.139Z,31.00
2023-04-10T11:40:02.829Z,30.00
2023-04-10T11:41:03.004Z,30.00
2023-04-10T11:42:02.827Z,30.00
2023-04-10T11:43:02.806Z,29.00
2023-04-10T11:44:02.839Z,29.00
2023-04-10T11:45:02.900Z,29.00
2023-04-10T11:46:02.983Z,28.00
2023-04-10T11:47:02.943Z,29.00
2023-04-10T11:48:02.494Z,29.00
2023-04-10T11:49:02.528Z,30.00
2023-04-10T11:50:02.771Z,30.00
2023-04-10T11:51:03.126Z,30.00
2023-04-10T11:52:03.032Z,30.00
2023-04-10T11:53:03.220Z,30.00
2023-04-10T11:55:03.149Z,29.00
2023-04-10T11:56:02.555Z,29.00
2023-04-10T11:57:02.745Z,29.00
2023-04-10T11:58:02.844Z,29.00
2023-04-10T11:59:02.672Z,29.00
2023-04-10T12:00:02.946Z,29.00
2023-04-10T12:01:02.620Z,29.00
2023-04-10T12:02:03.201Z,29.00
2023-04-10T12:03:03.244Z,29.00
2023-04-10T12:04:03.449Z,30.00
2023-04-10T12:05:02.863Z,30.00
2023-04-10T12:06:03.186Z,30.00
2023-04-10T12:07:02.984Z,30.00
2023-04-10T12:08:03.008Z,30.00
2023-04-10T12:09:02.340Z,30.00
2023-04-10T12:10:02.368Z,30.00
2023-04-10T12:11:02.536Z,30.00
2023-04-10T12:12:02.634Z,31.00
2023-04-10T12:13:02.302Z,31.00
2023-04-10T12:14:02.472Z,30.00
2023-04-10T12:15:02.425Z,31.00
2023-04-10T12:16:02.531Z,32.00
2023-04-10T12:17:01.653Z,31.00
2023-04-10T12:18:02.254Z,31.00
2023-04-10T12:19:02.270Z,32.00
2023-04-10T12:20:02.197Z,31.00
2023-04-10T12:21:02.256Z,31.00
2023-04-10T12:22:02.096Z,31.00
2023-04-10T12:23:02.559Z,31.00
2023-04-10T12:24:02.636Z,31.00
2023-04-10T12:25:02.218Z,31.00
2023-04-10T12:26:02.272Z,31.00
2023-04-10T12:27:02.252Z,31.00
2023-04-10T12:28:02.677Z,31.00
2023-04-10T12:29:02.737Z,32.00
2023-04-10T12:30:02.772Z,32.00
2023-04-10T12:31:02.894Z,31.00
2023-04-10T12:32:02.781Z,32.00
2023-04-10T12:33:01.832Z,32.00
2023-04-10T12:34:02.176Z,32.00
2023-04-10T12:35:02.435Z,32.00
2023-04-10T12:36:02.005Z,32.00
2023-04-10T12:37:02.161Z,32.00
2023-04-10T12:38:02.670Z,32.00
2023-04-10T12:39:02.901Z,32.00
2023-04-10T12:40:02.463Z,32.00
2023-04-10T12:41:02.696Z,32.00
2023-04-10T12:42:02.751Z,32.00
2023-04-10T12:43:02.005Z,32.00
2023-04-10T12:44:02.061Z,31.00
2023-04-10T12:45:02.154Z,31.00
2023-04-10T12:46:02.223Z,32.00
2023-04-10T12:47:02.114Z,32.00
2023-04-10T12:48:03.020Z,33.00
2023-04-10T12:49:03.071Z,32.00
2023-04-10T12:50:02.935Z,32.00
2023-04-10T12:51:03.179Z,32.00
2023-04-10T12:52:03.138Z,31.00
2023-04-10T12:53:02.972Z,31.00